ADDS TAF Board (Experimental) INFO Settings

IDs: Format: Expanded Condensed

KCVG - Cincinnati Intl, KY, US

Issued at 1457 UTC 27 Feb 2015
Updated at: 1649 UTC 27 Feb 2015
Time1552Z 27/17Z 27/18Z 27/19Z 27/20Z 27/21Z 27/22Z 27/23Z 28/00Z 28/01Z 28/02Z 28/03Z 28/04Z 28/05Z
Type OBS PRVL PRVL PRVL PRVL PRVL PRVL PRVL PRVL PRVL PRVL PRVL PRVL PRVL
VIS 10 >6 >6 >6 >6 >6 >6 >6 >6 >6 >6 >6 >6 >6
CIG -- -- -- -- -- -- -- -- -- -- -- -- -- --
Cover CLR SCT SCT SCT SCT SCT SCT SCT SCT SCT SCT SCT SCT SCT
FltCat VFR VFR VFR VFR VFR VFR VFR VFR VFR VFR VFR VFR VFR VFR
WX -- -- -- -- -- -- -- -- -- -- -- -- -- --
WDir VRB 320 320 320 320 320 320 320 40 40 40 40 40 40
WSpd 0 5 5 5 5 5 5 5 4 4 4 4 4 4
WGst -- -- -- -- -- -- -- -- -- -- -- -- -- --
R09/27
XWnd VRB 4 4 4 4 4 4 4 3 3 3 3 3 3
HWnd VRB -3 -3 -3 -3 -3 -3 -3 3 3 3 3 3 3
R18/36
XWnd VRB -3 -3 -3 -3 -3 -3 -3 3 3 3 3 3 3
HWnd VRB -4 -4 -4 -4 -4 -4 -4 -3 -3 -3 -3 -3 -3

NOTE: TEMPO conditions in [brackets]. Keep in mind TEMPO conditions might be better (lower impact) than prevailing conditions.

Raw TAF
KCVG 271457Z 2715/2818 32005KT P6SM SCT035
  FM280000 04004KT P6SM FEW035 SCT150
  FM281200 08006KT P6SM BKN080
  FM281500 09007KT P6SM SCT022 BKN070


Raw METAR
KCVG 271552Z 00000KT 10SM CLR M09/M17 A3057 RMK AO2 SLP365 T10891172
KCVG 271452Z 00000KT 10SM CLR M10/M17 A3055 RMK AO2 SLP361 T11001172 51025
KCVG 271352Z 00000KT 10SM FEW130 M13/M18 A3054 RMK AO2 SLP357 T11331178

METAR Board
Radar Display
Forecast Discussion

TAF Board Legend

Potential Impact
Threat None Slight Moderate High
Visibility (sm) ≥5.1 5.1>X≥3 3>X≥1 <1
Ceiling (100 ft) ≥30.1 30.1>X≥10 10>X≥5 <5
Wind Speed (kt) <10 10≤X<20 20≤X<30 ≥30
Wind Gust (kt) <15 15≤X<25 25≤X<35 ≥35
Weather No Wx Reported VCTS,-TS,-FZRA,SN TS,FZRA +TS,+FZRA,+SN